createdAt,value
2018-09-11T00:02:07.463Z,3.37
2018-09-11T00:04:35.655Z,3.73
2018-09-11T00:07:03.871Z,4.10
2018-09-11T00:09:32.058Z,3.90
2018-09-11T00:12:00.266Z,3.83
2018-09-11T00:14:28.456Z,3.60
2018-09-11T00:16:56.645Z,3.77
2018-09-11T00:19:24.839Z,3.90
2018-09-11T00:21:53.054Z,3.40
2018-09-11T00:24:21.225Z,4.07
2018-09-11T00:26:49.430Z,3.70
2018-09-11T00:29:17.638Z,3.60
2018-09-11T00:31:45.820Z,4.10
2018-09-11T00:34:14.023Z,3.50
2018-09-11T00:36:42.239Z,3.60
2018-09-11T00:39:10.469Z,3.70
2018-09-11T00:41:38.651Z,3.73
2018-09-11T00:44:06.842Z,3.40
2018-09-11T00:46:35.091Z,3.30
2018-09-11T00:49:03.300Z,3.77
2018-09-11T00:51:31.505Z,4.53
2018-09-11T00:53:59.727Z,3.63
2018-09-11T00:56:27.983Z,3.90
2018-09-11T00:58:56.191Z,3.20
2018-09-11T01:01:24.391Z,3.60
2018-09-11T01:03:52.593Z,3.60
2018-09-11T01:06:20.782Z,3.87
2018-09-11T01:08:48.991Z,4.10
2018-09-11T01:11:17.187Z,4.03
2018-09-11T01:13:45.391Z,4.30
2018-09-11T01:16:13.593Z,4.00
2018-09-11T01:18:41.795Z,4.13
2018-09-11T01:21:09.982Z,3.80
2018-09-11T01:23:38.176Z,3.80
2018-09-11T01:26:06.379Z,3.70
2018-09-11T01:28:34.582Z,3.83
2018-09-11T01:31:02.764Z,4.10
2018-09-11T01:33:30.954Z,3.90
2018-09-11T01:35:59.137Z,3.60
2018-09-11T01:38:27.545Z,4.30
2018-09-11T01:40:55.744Z,3.80
2018-09-11T01:43:23.961Z,3.87
2018-09-11T01:45:52.213Z,4.10
2018-09-11T01:48:20.401Z,3.90
2018-09-11T01:50:48.608Z,4.20
2018-09-11T01:53:16.801Z,3.80
2018-09-11T01:55:44.985Z,4.10
2018-09-11T01:58:13.190Z,4.60
2018-09-11T02:00:41.393Z,3.93
2018-09-11T02:03:09.579Z,3.87
2018-09-11T02:05:37.787Z,4.10
2018-09-11T02:08:05.971Z,4.30
2018-09-11T02:10:34.173Z,3.43
2018-09-11T02:13:02.370Z,4.13
2018-09-11T02:15:30.571Z,3.50
2018-09-11T02:17:58.778Z,4.00
2018-09-11T02:20:27.001Z,4.17
2018-09-11T02:22:55.174Z,3.97
2018-09-11T02:25:23.378Z,4.07
2018-09-11T02:27:52.355Z,4.07
2018-09-11T02:30:21.055Z,3.90
2018-09-11T02:32:49.253Z,4.00
2018-09-11T02:35:17.474Z,4.23
2018-09-11T02:37:45.700Z,3.70
2018-09-11T02:40:13.929Z,4.10
2018-09-11T02:42:42.138Z,4.00
2018-09-11T02:45:10.360Z,3.80
2018-09-11T02:47:38.559Z,4.40
2018-09-11T02:50:07.372Z,4.83
2018-09-11T02:52:35.579Z,5.23
2018-09-11T02:55:03.823Z,4.27
2018-09-11T02:57:32.028Z,3.83
2018-09-11T03:00:00.246Z,4.97
2018-09-11T03:02:28.451Z,3.90
2018-09-11T03:04:56.667Z,4.73
2018-09-11T03:07:24.862Z,4.40
2018-09-11T03:09:53.077Z,4.90
2018-09-11T03:12:21.286Z,4.50
2018-09-11T03:14:49.510Z,4.37
2018-09-11T03:17:17.779Z,5.13
2018-09-11T03:19:45.985Z,3.83
2018-09-11T03:22:14.186Z,4.50
2018-09-11T03:24:42.402Z,4.80
2018-09-11T03:27:10.604Z,4.20
2018-09-11T03:29:38.830Z,4.77
2018-09-11T03:32:07.115Z,4.50
2018-09-11T03:34:35.309Z,4.30
2018-09-11T03:37:03.524Z,4.60
2018-09-11T03:39:31.706Z,4.33
2018-09-11T03:41:59.919Z,4.67
2018-09-11T03:44:28.101Z,4.70
2018-09-11T03:46:56.324Z,5.10
2018-09-11T03:49:24.548Z,4.30
2018-09-11T03:51:52.762Z,4.60
2018-09-11T03:54:20.981Z,4.73
2018-09-11T03:56:49.218Z,4.47
2018-09-11T03:59:17.465Z,4.37
2018-09-11T04:01:45.609Z,4.97
2018-09-11T04:04:13.832Z,4.40
2018-09-11T04:06:42.044Z,4.90
2018-09-11T04:09:11.830Z,4.27
2018-09-11T04:11:40.134Z,5.10
2018-09-11T04:14:08.346Z,4.40
2018-09-11T04:16:36.559Z,4.40
2018-09-11T04:19:04.905Z,4.50
2018-09-11T04:21:33.131Z,4.50
2018-09-11T04:24:01.340Z,4.47
2018-09-11T04:26:29.568Z,4.23
2018-09-11T04:28:57.793Z,4.50
2018-09-11T04:31:26.008Z,5.37
2018-09-11T04:33:54.223Z,4.40
2018-09-11T04:36:22.508Z,4.97
2018-09-11T04:38:50.666Z,4.90
2018-09-11T04:41:18.908Z,4.70
2018-09-11T04:43:47.105Z,4.57
2018-09-11T04:46:15.335Z,4.80
2018-09-11T04:48:45.053Z,4.90
2018-09-11T04:51:13.262Z,4.70
2018-09-11T04:53:41.475Z,5.30
2018-09-11T04:56:09.708Z,4.70
2018-09-11T04:58:38.158Z,4.90
2018-09-11T05:01:06.370Z,4.77
2018-09-11T05:03:34.612Z,5.67
2018-09-11T05:06:02.840Z,5.10
2018-09-11T05:08:31.076Z,5.10
2018-09-11T05:10:59.295Z,5.23
2018-09-11T05:13:27.517Z,4.60
2018-09-11T05:15:55.731Z,5.47
2018-09-11T05:18:23.959Z,5.33
2018-09-11T05:20:52.163Z,4.60
2018-09-11T05:23:20.401Z,4.73
2018-09-11T05:25:48.627Z,5.07
2018-09-11T05:28:16.845Z,5.33
2018-09-11T05:30:45.063Z,4.63
2018-09-11T05:33:13.301Z,5.10
2018-09-11T05:35:41.533Z,4.83
2018-09-11T05:38:09.750Z,4.43
2018-09-11T05:40:37.963Z,5.73
2018-09-11T05:43:06.176Z,5.20
2018-09-11T05:45:34.403Z,5.40
2018-09-11T05:48:02.611Z,5.73
2018-09-11T05:50:30.839Z,5.53
2018-09-11T05:52:59.054Z,5.27
2018-09-11T05:55:27.260Z,5.30
2018-09-11T05:57:55.478Z,5.07
2018-09-11T06:00:23.750Z,4.90
2018-09-11T06:02:51.974Z,5.20
2018-09-11T06:05:20.194Z,4.93
2018-09-11T06:07:48.407Z,5.33
2018-09-11T06:10:16.625Z,5.60
2018-09-11T06:12:44.855Z,5.23
2018-09-11T06:15:13.080Z,5.90
2018-09-11T06:17:41.311Z,5.37
2018-09-11T06:20:09.527Z,5.20
2018-09-11T06:22:37.760Z,5.07
2018-09-11T06:25:05.986Z,5.80
2018-09-11T06:27:34.208Z,5.70
2018-09-11T06:30:02.549Z,4.80
2018-09-11T06:32:30.771Z,5.00
2018-09-11T06:34:58.998Z,5.70
2018-09-11T06:37:27.210Z,5.60
2018-09-11T06:39:55.427Z,5.87
2018-09-11T06:42:23.657Z,6.23
2018-09-11T06:44:51.899Z,5.63
2018-09-11T06:47:20.099Z,5.67
2018-09-11T06:49:48.338Z,5.20
2018-09-11T06:52:16.546Z,6.07
2018-09-11T06:54:44.811Z,5.00
2018-09-11T06:57:12.992Z,5.60
2018-09-11T06:59:41.230Z,5.60
2018-09-11T07:02:09.435Z,5.17
2018-09-11T07:04:37.672Z,4.73
2018-09-11T07:07:05.895Z,5.40
2018-09-11T07:09:34.113Z,5.40
2018-09-11T07:12:02.332Z,5.70
2018-09-11T07:14:30.575Z,5.03
2018-09-11T07:16:58.787Z,5.43
2018-09-11T07:19:27.080Z,4.93
2018-09-11T07:21:55.260Z,4.77
2018-09-11T07:24:23.558Z,5.20
2018-09-11T07:26:51.784Z,4.90
2018-09-11T07:29:20.013Z,5.10
2018-09-11T07:31:48.233Z,5.03
2018-09-11T07:34:16.459Z,5.20
2018-09-11T07:36:44.670Z,5.67
2018-09-11T07:39:12.854Z,4.97
2018-09-11T07:41:41.079Z,5.40
2018-09-11T07:44:09.262Z,4.80
2018-09-11T07:46:37.466Z,5.20
2018-09-11T07:49:05.662Z,5.30
2018-09-11T07:51:33.854Z,4.77
2018-09-11T07:54:02.042Z,4.80
2018-09-11T07:56:30.234Z,5.20
2018-09-11T07:58:58.442Z,5.73
2018-09-11T08:01:26.647Z,4.00
2018-09-11T08:03:54.841Z,5.50
2018-09-11T08:06:23.045Z,5.20
2018-09-11T08:08:51.572Z,5.00
2018-09-11T08:11:19.773Z,4.60
2018-09-11T08:13:47.986Z,4.70
2018-09-11T08:16:16.175Z,5.40
2018-09-11T08:18:44.370Z,5.03
2018-09-11T08:21:12.596Z,4.87
2018-09-11T08:23:40.786Z,5.20
2018-09-11T08:26:08.987Z,5.20
2018-09-11T08:28:37.188Z,5.90
2018-09-11T08:31:05.388Z,5.47
2018-09-11T08:33:33.586Z,5.67
2018-09-11T08:36:01.790Z,5.33
2018-09-11T08:38:30.010Z,5.73
2018-09-11T08:40:58.272Z,4.70
2018-09-11T08:43:26.474Z,5.67
2018-09-11T08:45:54.691Z,5.30
2018-09-11T08:48:22.990Z,4.97
2018-09-11T08:50:51.215Z,5.33
2018-09-11T08:53:19.434Z,5.43
2018-09-11T08:55:47.637Z,5.70
2018-09-11T08:58:15.875Z,5.20
2018-09-11T09:00:44.082Z,6.50
2018-09-11T09:03:12.310Z,6.70
2018-09-11T09:05:40.539Z,6.03
2018-09-11T09:08:08.762Z,5.90
2018-09-11T09:10:36.991Z,5.70
2018-09-11T09:13:05.282Z,5.70
2018-09-11T09:15:33.531Z,6.30
2018-09-11T09:18:01.779Z,6.70
2018-09-11T09:20:29.973Z,6.20
2018-09-11T09:22:58.276Z,5.30
2018-09-11T09:25:26.486Z,5.27
2018-09-11T09:27:54.701Z,5.67
2018-09-11T09:30:22.911Z,4.93
2018-09-11T09:32:51.130Z,5.53
2018-09-11T09:35:19.351Z,5.43
2018-09-11T09:37:47.562Z,5.90
2018-09-11T09:40:15.754Z,5.90
2018-09-11T09:42:43.966Z,5.33
2018-09-11T09:45:12.158Z,6.30
2018-09-11T09:47:40.359Z,4.73
2018-09-11T09:50:08.556Z,4.97
2018-09-11T09:52:36.790Z,5.43
2018-09-11T09:55:05.013Z,4.80
2018-09-11T09:57:34.051Z,5.00
2018-09-11T10:00:02.268Z,6.00
2018-09-11T10:02:30.470Z,5.93
2018-09-11T10:04:58.772Z,4.90
2018-09-11T10:07:26.867Z,5.37
2018-09-11T10:09:55.073Z,5.27
2018-09-11T10:12:23.268Z,4.57
2018-09-11T10:14:51.469Z,4.87
2018-09-11T10:17:19.661Z,5.00
2018-09-11T10:19:47.856Z,5.13
2018-09-11T10:22:16.042Z,5.47
2018-09-11T10:24:44.262Z,5.80
2018-09-11T10:27:12.721Z,5.17
2018-09-11T10:29:40.922Z,5.13
2018-09-11T10:32:09.116Z,4.97
2018-09-11T10:34:37.315Z,4.90
2018-09-11T10:37:05.542Z,4.53
2018-09-11T10:39:33.803Z,4.90
2018-09-11T10:42:02.018Z,4.50
2018-09-11T10:44:30.242Z,5.07
2018-09-11T10:46:58.442Z,4.70
2018-09-11T10:49:26.685Z,5.50
2018-09-11T10:51:54.935Z,5.10
2018-09-11T10:54:23.138Z,5.50
2018-09-11T10:56:51.355Z,4.80
2018-09-11T10:59:19.595Z,5.27
2018-09-11T11:01:47.815Z,6.10
2018-09-11T11:04:16.046Z,4.60
2018-09-11T11:06:44.279Z,4.90
2018-09-11T11:09:12.494Z,5.10
2018-09-11T11:11:40.701Z,4.53
2018-09-11T11:14:09.228Z,4.40
2018-09-11T11:16:37.461Z,4.50
2018-09-11T11:19:05.972Z,4.60
2018-09-11T11:21:34.196Z,4.73
2018-09-11T11:24:02.426Z,4.33
2018-09-11T11:26:30.643Z,4.33
2018-09-11T11:28:58.884Z,5.00
2018-09-11T11:31:27.114Z,4.20
2018-09-11T11:33:55.386Z,4.40
2018-09-11T11:36:23.754Z,4.67
2018-09-11T11:38:51.847Z,4.80
2018-09-11T11:41:20.386Z,4.50
2018-09-11T11:43:48.675Z,4.60
2018-09-11T11:46:16.891Z,4.03
2018-09-11T11:48:45.374Z,4.67
2018-09-11T11:51:13.573Z,4.47
2018-09-11T11:53:41.793Z,4.30
2018-09-11T11:56:10.006Z,4.10
2018-09-11T11:58:38.212Z,3.63
2018-09-11T12:01:06.418Z,4.17
2018-09-11T12:03:34.767Z,4.60
2018-09-11T12:06:03.184Z,4.33
2018-09-11T12:08:31.924Z,4.40
2018-09-11T12:11:00.166Z,3.80
2018-09-11T12:13:28.400Z,4.40
2018-09-11T12:15:56.607Z,4.20
2018-09-11T12:18:24.797Z,4.47
2018-09-11T12:20:53.014Z,3.70
2018-09-11T12:23:21.199Z,3.80
2018-09-11T12:25:49.407Z,3.50
2018-09-11T12:28:17.621Z,3.70
2018-09-11T12:30:45.849Z,3.70
2018-09-11T12:33:14.075Z,3.90
2018-09-11T12:35:42.297Z,3.67
2018-09-11T12:38:10.505Z,3.77
2018-09-11T12:40:38.724Z,4.30
2018-09-11T12:43:06.950Z,4.27
2018-09-11T12:45:35.271Z,3.77
2018-09-11T12:48:03.814Z,3.40
2018-09-11T12:50:31.716Z,4.07
2018-09-11T12:53:00.863Z,3.70
2018-09-11T12:55:29.087Z,4.10
2018-09-11T12:57:57.318Z,4.17
2018-09-11T13:00:25.537Z,4.03
2018-09-11T13:02:53.755Z,4.40
2018-09-11T13:05:21.961Z,3.57
2018-09-11T13:07:50.199Z,4.30
2018-09-11T13:10:18.410Z,4.13
2018-09-11T13:12:46.641Z,4.70
2018-09-11T13:15:14.909Z,4.27
2018-09-11T13:17:43.109Z,4.20
2018-09-11T13:20:11.373Z,3.80
2018-09-11T13:22:39.617Z,4.10
2018-09-11T13:25:07.831Z,4.30
2018-09-11T13:27:36.083Z,4.73
2018-09-11T13:30:04.371Z,4.30
2018-09-11T13:32:32.598Z,3.53
2018-09-11T13:35:00.846Z,4.40
2018-09-11T13:37:29.169Z,4.30
2018-09-11T13:39:57.387Z,3.50
2018-09-11T13:42:25.602Z,3.60
2018-09-11T13:44:54.324Z,3.83
2018-09-11T13:47:22.670Z,3.73
2018-09-11T13:49:50.768Z,3.90
2018-09-11T13:52:18.987Z,4.07
2018-09-11T13:54:47.193Z,3.83
2018-09-11T13:57:15.415Z,4.23
2018-09-11T13:59:43.631Z,4.13
2018-09-11T14:02:11.862Z,4.17
2018-09-11T14:04:40.076Z,3.83
2018-09-11T14:07:08.284Z,4.60
2018-09-11T14:09:36.753Z,4.00
2018-09-11T14:12:04.965Z,3.70
2018-09-11T14:14:33.407Z,4.00
2018-09-11T14:17:01.727Z,4.00
2018-09-11T14:19:29.969Z,3.50
2018-09-11T14:21:58.177Z,3.70
2018-09-11T14:24:26.403Z,3.40
2018-09-11T14:26:54.662Z,3.87
2018-09-11T14:29:22.854Z,3.50
2018-09-11T14:31:51.072Z,3.17
2018-09-11T14:34:19.305Z,3.50
2018-09-11T14:36:47.536Z,2.97
2018-09-11T14:39:15.746Z,3.60
2018-09-11T14:41:43.971Z,3.47
2018-09-11T14:44:12.431Z,3.40
2018-09-11T14:46:40.645Z,3.30
2018-09-11T14:49:08.860Z,3.80
2018-09-11T14:51:37.055Z,3.40
2018-09-11T14:54:05.254Z,3.53
2018-09-11T14:56:33.459Z,3.47
2018-09-11T14:59:01.680Z,4.00
2018-09-11T15:01:29.876Z,3.30
2018-09-11T15:03:58.127Z,3.70
2018-09-11T15:06:26.336Z,3.60
2018-09-11T15:08:54.531Z,4.37
2018-09-11T15:11:22.734Z,4.47
2018-09-11T15:13:50.930Z,3.30
2018-09-11T15:16:19.123Z,3.23
2018-09-11T15:18:47.335Z,3.47
2018-09-11T15:21:15.550Z,3.47
2018-09-11T15:23:43.758Z,3.53
2018-09-11T15:26:12.199Z,3.27
2018-09-11T15:28:40.446Z,3.13
2018-09-11T15:31:08.653Z,2.77
2018-09-11T15:33:36.859Z,3.40
2018-09-11T15:36:05.106Z,2.93
2018-09-11T15:38:33.294Z,3.07
2018-09-11T15:41:01.501Z,3.40
2018-09-11T15:43:29.700Z,2.80
2018-09-11T15:45:58.044Z,2.70
2018-09-11T15:48:27.379Z,2.70
2018-09-11T15:50:55.598Z,2.97
2018-09-11T15:53:23.796Z,2.63
2018-09-11T15:55:52.177Z,3.27
2018-09-11T15:58:20.282Z,2.67
2018-09-11T16:00:48.814Z,2.80
2018-09-11T16:03:17.015Z,3.17
2018-09-11T16:05:45.475Z,2.53
2018-09-11T16:08:14.252Z,3.10
2018-09-11T16:10:42.626Z,2.60
2018-09-11T16:13:10.827Z,3.00
2018-09-11T16:15:39.034Z,3.30
2018-09-11T16:18:07.249Z,3.03
2018-09-11T16:20:35.463Z,2.83
2018-09-11T16:23:03.664Z,3.00
2018-09-11T16:25:31.868Z,3.10
2018-09-11T16:28:00.046Z,2.70
2018-09-11T16:30:28.265Z,2.93
2018-09-11T16:32:56.459Z,2.90
2018-09-11T16:35:24.808Z,2.70
2018-09-11T16:37:53.107Z,2.93
2018-09-11T16:40:21.381Z,2.97
2018-09-11T16:42:49.753Z,3.50
2018-09-11T16:45:18.363Z,2.93
2018-09-11T16:47:46.578Z,2.80
2018-09-11T16:50:14.815Z,3.10
2018-09-11T16:52:43.096Z,3.23
2018-09-11T16:55:11.358Z,3.20
2018-09-11T16:57:39.571Z,3.60
2018-09-11T17:00:07.797Z,3.63
2018-09-11T17:02:36.172Z,7.70
2018-09-11T17:05:04.517Z,7.40
2018-09-11T17:07:32.744Z,6.50
2018-09-11T17:10:01.003Z,10.20
2018-09-11T17:12:29.242Z,4.97
2018-09-11T17:14:57.555Z,11.20
2018-09-11T17:17:25.735Z,6.97
2018-09-11T17:19:53.952Z,6.10
2018-09-11T17:22:22.268Z,6.23
2018-09-11T17:24:50.479Z,4.70
2018-09-11T17:27:18.725Z,6.97
2018-09-11T17:29:46.937Z,5.90
2018-09-11T17:32:15.163Z,5.17
2018-09-11T17:34:43.374Z,8.40
2018-09-11T17:37:11.623Z,4.17
2018-09-11T17:39:39.834Z,4.73
2018-09-11T17:42:08.073Z,5.63
2018-09-11T17:44:36.298Z,5.27
2018-09-11T17:47:04.629Z,4.40
2018-09-11T17:49:32.841Z,4.30
2018-09-11T17:52:01.084Z,3.70
2018-09-11T17:54:29.316Z,4.20
2018-09-11T17:56:57.595Z,4.50
2018-09-11T17:59:25.769Z,3.80
2018-09-11T18:01:53.993Z,4.17
2018-09-11T18:04:22.243Z,3.67
2018-09-11T18:06:50.534Z,4.00
2018-09-11T18:09:18.764Z,3.73
2018-09-11T18:11:46.992Z,4.00
2018-09-11T18:14:15.203Z,4.10
2018-09-11T18:16:43.432Z,4.20
2018-09-11T18:19:11.655Z,3.90
2018-09-11T18:21:39.866Z,4.30
2018-09-11T18:24:08.130Z,3.80
2018-09-11T18:26:36.352Z,3.87
2018-09-11T18:29:04.625Z,4.10
2018-09-11T18:31:32.834Z,4.10
2018-09-11T18:34:01.046Z,3.87
2018-09-11T18:36:29.320Z,3.70
2018-09-11T18:38:57.630Z,3.93
2018-09-11T18:41:25.835Z,4.07
2018-09-11T18:43:54.044Z,3.93
2018-09-11T18:46:22.227Z,3.50
2018-09-11T18:48:50.431Z,3.67
2018-09-11T18:51:18.627Z,3.80
2018-09-11T18:53:46.820Z,3.40
2018-09-11T18:56:15.023Z,3.93
2018-09-11T18:58:43.235Z,3.40
2018-09-11T19:01:11.426Z,3.77
2018-09-11T19:03:39.643Z,3.83
2018-09-11T19:06:07.824Z,3.60
2018-09-11T19:08:36.042Z,3.70
2018-09-11T19:11:04.273Z,3.80
2018-09-11T19:13:32.466Z,3.90
2018-09-11T19:16:00.662Z,3.93
2018-09-11T19:18:28.869Z,3.10
2018-09-11T19:20:57.058Z,4.27
2018-09-11T19:23:25.265Z,3.87
2018-09-11T19:25:53.451Z,3.80
2018-09-11T19:28:21.703Z,3.53
2018-09-11T19:30:49.885Z,3.67
2018-09-11T19:33:18.102Z,4.30
2018-09-11T19:35:46.335Z,3.53
2018-09-11T19:38:14.575Z,3.27
2018-09-11T19:40:42.806Z,4.00
2018-09-11T19:43:11.022Z,3.57
2018-09-11T19:45:39.234Z,4.20
2018-09-11T19:48:07.467Z,3.47
2018-09-11T19:50:41.408Z,4.73
2018-09-11T19:53:09.680Z,3.73
2018-09-11T19:55:38.064Z,4.80
2018-09-11T19:58:06.286Z,4.30
2018-09-11T20:00:34.627Z,3.87
2018-09-11T20:03:02.848Z,3.90
2018-09-11T20:05:31.064Z,4.37
2018-09-11T20:07:59.290Z,4.37
2018-09-11T20:10:34.238Z,3.90
2018-09-11T20:13:02.459Z,4.37
2018-09-11T20:15:30.672Z,4.97
2018-09-11T20:17:58.884Z,4.20
2018-09-11T20:20:27.166Z,4.10
2018-09-11T20:22:55.398Z,3.90
2018-09-11T20:25:23.719Z,3.80
2018-09-11T20:27:51.863Z,4.37
2018-09-11T20:30:20.087Z,3.53
2018-09-11T20:32:48.310Z,3.57
2018-09-11T20:35:16.551Z,4.03
2018-09-11T20:37:44.777Z,4.70
2018-09-11T20:40:12.994Z,3.83
2018-09-11T20:42:41.238Z,3.50
2018-09-11T20:45:09.475Z,4.10
2018-09-11T20:47:37.689Z,3.97
2018-09-11T20:50:06.187Z,3.80
2018-09-11T20:55:09.100Z,3.83
2018-09-11T20:57:37.320Z,3.83
2018-09-11T21:00:05.566Z,3.47
2018-09-11T21:02:33.833Z,3.83
2018-09-11T21:05:02.404Z,4.03
2018-09-11T21:07:30.609Z,4.07
2018-09-11T21:09:59.162Z,4.23
2018-09-11T21:12:27.750Z,3.80
2018-09-11T21:14:56.011Z,4.60
2018-09-11T21:17:24.228Z,3.83
2018-09-11T21:19:52.456Z,3.67
2018-09-11T21:22:20.679Z,4.13
2018-09-11T21:24:48.925Z,3.80
2018-09-11T21:27:17.173Z,3.77
2018-09-11T21:29:45.479Z,4.20
2018-09-11T21:32:13.700Z,4.13
2018-09-11T21:34:41.943Z,3.77
2018-09-11T21:37:10.158Z,4.10
2018-09-11T21:39:38.367Z,4.00
2018-09-11T21:42:06.575Z,4.03
2018-09-11T21:44:34.814Z,4.00
2018-09-11T21:47:03.024Z,4.10
2018-09-11T21:49:31.228Z,4.33
2018-09-11T21:51:59.439Z,4.20
2018-09-11T21:54:27.643Z,4.40
2018-09-11T21:56:55.855Z,4.03
2018-09-11T21:59:24.066Z,4.10
2018-09-11T22:01:53.265Z,4.03
2018-09-11T22:04:22.359Z,4.27
2018-09-11T22:06:50.586Z,3.73
2018-09-11T22:09:18.773Z,4.23
2018-09-11T22:11:47.006Z,3.90
2018-09-11T22:14:15.176Z,4.03
2018-09-11T22:16:43.387Z,4.30
2018-09-11T22:19:11.611Z,3.80
2018-09-11T22:21:39.818Z,4.23
2018-09-11T22:24:08.013Z,4.23
2018-09-11T22:26:36.212Z,3.60
2018-09-11T22:29:04.414Z,4.37
2018-09-11T22:31:32.618Z,4.27
2018-09-11T22:34:01.174Z,4.17
2018-09-11T22:36:29.410Z,4.00
2018-09-11T22:38:57.616Z,4.23
2018-09-11T22:41:25.846Z,4.27
2018-09-11T22:43:54.149Z,3.80
2018-09-11T22:46:23.278Z,4.30
2018-09-11T22:48:51.472Z,3.77
2018-09-11T22:51:19.683Z,4.20
2018-09-11T22:53:47.872Z,3.27
2018-09-11T22:56:16.070Z,4.30
2018-09-11T22:58:44.327Z,3.50
2018-09-11T23:01:12.730Z,3.43
2018-09-11T23:03:40.921Z,3.67
2018-09-11T23:06:09.142Z,3.97
2018-09-11T23:08:37.335Z,4.20
2018-09-11T23:11:05.626Z,4.20
2018-09-11T23:13:33.828Z,3.40
2018-09-11T23:16:02.023Z,4.40
2018-09-11T23:18:30.212Z,4.20
2018-09-11T23:20:58.413Z,4.50
2018-09-11T23:23:26.622Z,3.50
2018-09-11T23:25:54.810Z,3.60
2018-09-11T23:28:23.012Z,4.30
2018-09-11T23:30:51.214Z,4.13
2018-09-11T23:33:19.406Z,4.10
2018-09-11T23:35:47.602Z,3.80
2018-09-11T23:38:15.848Z,3.87
2018-09-11T23:40:44.055Z,3.30
2018-09-11T23:43:18.966Z,4.13
2018-09-11T23:45:47.182Z,3.60
2018-09-11T23:48:15.407Z,4.03
2018-09-11T23:50:43.611Z,3.73
2018-09-11T23:53:11.836Z,3.70
2018-09-11T23:55:40.054Z,4.13
2018-09-11T23:58:08.278Z,4.03
